This is the latest recevied weather packets stored in our database for station/object DH0GMA. If no packets are shown the sender has not sent any weather packets the latest 10 day(s).
| Time | Temp. | Humidity | Pressure | Rain* | Wind** | Luminosity | Snow |
|---|---|---|---|---|---|---|---|
| 1777901103 | 22.22° C | 49% | 1010.8 hPa | 0 mm | - | - | - |
| 1777900502 | 22.22° C | 52% | 1011 hPa | 0 mm | - | - | - |
| 1777899902 | 22.22° C | 48% | 1011 hPa | 0 mm | - | - | - |
| 1777899302 | 22.22° C | 49% | 1011.2 hPa | 0 mm | - | - | - |
| 1777898703 | 21.67° C | 49% | 1011.2 hPa | 0 mm | - | - | - |
| 1777898102 | 21.67° C | 49% | 1011.4 hPa | 0 mm | - | - | - |
| 1777897502 | 21.11° C | 50% | 1011.3 hPa | 0 mm | - | - | - |
| 1777896904 | 21.11° C | 51% | 1011.4 hPa | 0 mm | - | - | - |
| 1777896304 | 21.11° C | 48% | 1011.4 hPa | 0 mm | - | - | - |
| 1777895704 | 21.67° C | 48% | 1011.5 hPa | 0 mm | - | - | - |
| 1777895105 | 21.11° C | 48% | 1011.6 hPa | 0 mm | - | - | - |
| 1777894505 | 21.11° C | 52% | 1011.9 hPa | 0 mm | - | - | - |
| 1777893905 | 21.11° C | 50% | 1011.8 hPa | 0 mm | - | - | - |
| 1777893305 | 21.11° C | 49% | 1011.8 hPa | 0 mm | - | - | - |
| 1777892705 | 21.11° C | 48% | 1011.9 hPa | 0 mm | - | - | - |
| 1777892105 | 21.11° C | 51% | 1012 hPa | 0 mm | - | - | - |
| 1777891505 | 20.56° C | 52% | 1012.1 hPa | 0 mm | - | - | - |
| 1777890905 | 20.56° C | 51% | 1012.2 hPa | 0 mm | - | - | - |
| 1777890305 | 20.56° C | 52% | 1012.4 hPa | 0 mm | - | - | - |
| 1777889704 | 20.56° C | 52% | 1012.6 hPa | 0 mm | - | - | - |
| 1777889104 | 20.56° C | 51% | 1012.6 hPa | 0 mm | - | - | - |
| 1777888504 | 20.56° C | 50% | 1012.6 hPa | 0 mm | - | - | - |
| 1777887904 | 21.11° C | 50% | 1012.7 hPa | 0 mm | - | - | - |
| 1777887304 | 21.11° C | 49% | 1012.8 hPa | 0 mm | - | - | - |
| 1777886704 | 20.56° C | 50% | 1012.9 hPa | 0 mm | - | - | - |
* Rain latest hour (hover to see other rain measurements)
** Current wind speed in m/s (hover to see current wind gust speed)